Terminal Aerodrome Forecast
Issued by NWS Omaha/Valley, NE

Home | Current Version | Previous Version | Graphics & Text | Print | Product List | Glossary On
Versions: 1 2 3 4 5 6 7 8 9 10 11 12 13 14 15 16 17 18 19 20 21
000
FTUS43 KOAX 182336
TAFOFK
TAF
KOFK 182336Z 1900/1924 32011KT P6SM OVC050
     FM190200 32008KT P6SM OVC020
     FM190600 32008KT P6SM OVC009
     FM190900 33006KT P6SM BKN030
     FM191300 01004KT P6SM SCT030=

USA.gov is the U.S. government's official web portal to all federal, state and local government web resources and services.